Time;durP1;ratioP1;P1;durP2;ratioP2;P2;SDS_P1;SDS_P2;PMS_P1;PMS_P2;Temp;Humidity;BMP_temperature;BMP_pressure;BME280_temperature;BME280_humidity;BME280_pressure;Samples;Min_cycle;Max_cycle;Signal;HPM_P1;HPM_P2
2022/04/25 00:00:05;;;;;;;9.40;4.93;;;;;;;-150.27;100.00;61272.81;5228525;28;20511;-76
2022/04/25 00:02:37;;;;;;;8.10;4.73;;;;;;;-150.27;100.00;61272.81;5210957;28;20540;-76
2022/04/25 00:05:08;;;;;;;9.77;4.80;;;;;;;-150.27;100.00;61272.81;5228508;28;20147;-76
2022/04/25 00:07:39;;;;;;;7.30;4.90;;;;;;;-150.27;100.00;61272.81;5227439;28;20022;-76
2022/04/25 00:10:10;;;;;;;5.97;4.60;;;;;;;-150.27;100.00;61272.81;5227778;28;20056;-76
2022/04/25 00:12:42;;;;;;;10.00;5.60;;;;;;;-150.27;100.00;61272.81;5228585;28;20523;-76
2022/04/25 00:15:13;;;;;;;10.97;5.67;;;;;;;-150.27;100.00;61272.81;5227815;28;20037;-76
2022/04/25 00:17:45;;;;;;;10.50;5.47;;;;;;;-150.27;100.00;61272.81;5228756;28;20102;-76
2022/04/25 00:20:16;;;;;;;14.33;5.80;;;;;;;-150.27;100.00;61272.81;5212543;28;20022;-76
2022/04/25 00:22:47;;;;;;;10.43;5.70;;;;;;;-150.27;100.00;61272.81;5226925;28;20144;-76
2022/04/25 00:25:18;;;;;;;10.77;5.50;;;;;;;-150.27;100.00;61272.81;5228521;28;20025;-76
2022/04/25 00:27:50;;;;;;;10.40;6.03;;;;;;;-150.27;100.00;61272.81;5227226;28;20022;-76
2022/04/25 00:30:21;;;;;;;11.53;6.10;;;;;;;-150.27;100.00;61272.81;5228355;28;20495;-76
2022/04/25 00:32:52;;;;;;;8.23;5.03;;;;;;;-150.27;100.00;61272.81;5227807;28;20030;-76
2022/04/25 00:35:24;;;;;;;10.60;5.67;;;;;;;-150.27;100.00;61272.81;5227296;28;20119;-76
2022/04/25 00:37:56;;;;;;;7.53;5.57;;;;;;;-150.27;100.00;61272.81;5226977;28;20037;-76
2022/04/25 00:40:27;;;;;;;8.83;5.60;;;;;;;-150.27;100.00;61272.81;5227555;28;20036;-76
2022/04/25 00:42:58;;;;;;;11.13;6.57;;;;;;;-150.27;100.00;61272.81;5210244;28;20048;-75
2022/04/25 00:45:32;;;;;;;12.40;5.80;;;;;;;-150.27;100.00;61272.81;5227208;28;20095;-76
2022/04/25 00:48:04;;;;;;;12.13;6.10;;;;;;;-150.27;100.00;61272.81;5228183;28;20108;-76
2022/04/25 00:50:38;;;;;;;8.70;5.63;;;;;;;-150.27;100.00;61272.81;5226980;28;20108;-76
2022/04/25 00:53:10;;;;;;;;;;;;;;;-150.27;100.00;61272.81;5227471;28;20029;-76
2022/04/25 00:55:41;;;;;;;11.20;6.50;;;;;;;-150.27;100.00;61272.81;5227388;28;19916;-75
2022/04/25 00:58:13;;;;;;;10.97;5.20;;;;;;;-150.27;100.00;61272.81;5227164;28;20065;-76
2022/04/25 01:00:46;;;;;;;14.43;6.33;;;;;;;-150.27;100.00;61272.81;5210132;28;20504;-76
2022/04/25 01:03:17;;;;;;;11.83;6.60;;;;;;;-150.27;100.00;61272.81;5227226;28;20021;-76
2022/04/25 01:05:49;;;;;;;8.50;6.70;;;;;;;-150.27;100.00;61272.81;5209254;28;20424;-76
2022/04/25 01:08:20;;;;;;;11.47;6.13;;;;;;;-150.27;100.00;61272.81;5226036;28;20057;-76
2022/04/25 01:10:52;;;;;;;13.23;6.67;;;;;;;-150.27;100.00;61272.81;5227202;28;20057;-77
2022/04/25 01:13:23;;;;;;;12.47;6.23;;;;;;;-150.27;100.00;61272.81;5227009;28;20033;-70
2022/04/25 01:15:55;;;;;;;9.60;6.30;;;;;;;-150.27;100.00;61272.81;5226740;28;20388;-76
2022/04/25 01:18:26;;;;;;;13.03;6.53;;;;;;;-150.27;100.00;61272.81;5226800;28;20025;-76
2022/04/25 01:20:58;;;;;;;14.17;6.53;;;;;;;-150.27;100.00;61272.81;5226605;28;20108;-76
2022/04/25 01:29:10;;;;;;;9.77;6.37;;;;;;;-150.27;100.00;61272.81;5226805;28;20025;-76
2022/04/25 01:31:41;;;;;;;11.33;6.73;;;;;;;-150.27;100.00;61272.81;5226933;28;20404;-76
2022/04/25 01:34:13;;;;;;;8.53;6.77;;;;;;;-150.27;100.00;61272.81;5226149;28;20029;-76
2022/04/25 01:36:44;;;;;;;12.13;7.03;;;;;;;-150.27;100.00;61272.81;5227260;28;20029;-76
2022/04/25 01:39:15;;;;;;;12.43;7.43;;;;;;;-150.27;100.00;61272.81;5225325;28;20037;-76
2022/04/25 01:41:46;;;;;;;12.40;8.10;;;;;;;-150.27;100.00;61272.81;5226525;28;20029;-76
2022/04/25 01:44:18;;;;;;;12.37;8.00;;;;;;;-150.27;100.00;61272.81;5208993;28;20029;-76
2022/04/25 01:46:49;;;;;;;11.90;7.37;;;;;;;-150.27;100.00;61272.81;5226440;28;20030;-76
2022/04/25 01:49:20;;;;;;;11.00;6.97;;;;;;;-150.27;100.00;61272.81;5227355;28;20030;-76
2022/04/25 01:51:52;;;;;;;10.30;7.10;;;;;;;-150.27;100.00;61272.81;5226210;28;20025;-76
2022/04/25 01:54:26;;;;;;;9.90;6.87;;;;;;;-150.27;100.00;61272.81;5208201;28;20022;-69
2022/04/25 01:56:58;;;;;;;12.27;7.50;;;;;;;-150.27;100.00;61272.81;5226366;28;20626;-75
2022/04/25 01:59:30;;;;;;;13.83;8.27;;;;;;;-150.27;100.00;61272.81;5208625;28;20031;-76
2022/04/25 02:02:03;;;;;;;13.33;8.70;;;;;;;-150.27;100.00;61272.81;5226354;28;20026;-76
2022/04/25 02:04:34;;;;;;;12.33;7.87;;;;;;;-150.27;100.00;61272.81;5226619;28;20024;-76
2022/04/25 02:07:07;;;;;;;8.27;7.30;;;;;;;-150.27;100.00;61272.81;5229586;28;20022;-75
2022/04/25 02:09:39;;;;;;;12.83;7.80;;;;;;;-150.27;100.00;61272.81;5230339;28;20121;-75
2022/04/25 02:12:10;;;;;;;13.63;8.00;;;;;;;-150.27;100.00;61272.81;5230641;28;20120;-75
2022/04/25 02:14:43;;;;;;;11.43;8.00;;;;;;;-150.27;100.00;61272.81;5230759;28;20032;-75
2022/04/25 02:17:14;;;;;;;10.67;8.13;;;;;;;-150.27;100.00;61272.81;5229884;28;20048;-75
2022/04/25 02:19:46;;;;;;;10.77;8.10;;;;;;;-150.27;100.00;61272.81;5230290;28;20156;-73
2022/04/25 02:22:17;;;;;;;13.20;8.33;;;;;;;-150.27;100.00;61272.81;5211713;28;20048;-75
2022/04/25 02:24:48;;;;;;;10.30;7.60;;;;;;;-150.27;100.00;61272.81;5230446;28;20139;-75
2022/04/25 02:27:21;;;;;;;10.57;7.37;;;;;;;-150.27;100.00;61272.81;5230275;28;20408;-76
2022/04/25 02:29:59;;;;;;;36.80;8.57;;;;;;;-150.27;100.00;61272.81;5230217;28;20029;-75
2022/04/25 02:32:30;;;;;;;10.40;7.53;;;;;;;-150.27;100.00;61272.81;5229895;28;20033;-75
2022/04/25 02:35:02;;;;;;;14.33;7.70;;;;;;;-150.27;100.00;61272.81;5229926;28;20021;-75
2022/04/25 02:37:33;;;;;;;11.77;8.27;;;;;;;-150.27;100.00;61272.81;5229284;28;20021;-76
2022/04/25 02:40:05;;;;;;;12.80;7.90;;;;;;;-150.27;100.00;61272.81;5229703;28;20053;-75
2022/04/25 02:42:36;;;;;;;11.60;7.53;;;;;;;-150.27;100.00;61272.81;5212717;28;20112;-76
2022/04/25 02:45:11;;;;;;;13.27;7.83;;;;;;;-150.27;100.00;61272.81;5229670;28;20100;-76
2022/04/25 02:47:42;;;;;;;12.40;8.43;;;;;;;-150.27;100.00;61272.81;5212345;28;20034;-76
2022/04/25 02:50:13;;;;;;;11.37;7.70;;;;;;;-150.27;100.00;61272.81;5211452;28;20381;-76
2022/04/25 02:52:45;;;;;;;12.30;8.17;;;;;;;-150.27;100.00;61272.81;5228833;28;20029;-75
2022/04/25 02:55:16;;;;;;;13.20;8.13;;;;;;;-150.27;100.00;61272.81;5229909;28;20053;-75
2022/04/25 02:57:47;;;;;;;13.00;8.87;;;;;;;-150.27;100.00;61272.81;5229179;28;20472;-75
2022/04/25 03:00:18;;;;;;;14.93;8.60;;;;;;;-150.27;100.00;61272.81;5230105;28;20633;-75
2022/04/25 03:02:50;;;;;;;13.07;8.37;;;;;;;-150.27;100.00;61272.81;5228932;28;20013;-75
2022/04/25 03:05:21;;;;;;;10.70;7.97;;;;;;;-150.27;100.00;61272.81;5212562;28;20033;-76
2022/04/25 03:07:52;;;;;;;12.57;8.93;;;;;;;-150.27;100.00;61272.81;5228306;28;20056;-75
2022/04/25 03:10:23;;;;;;;13.03;8.63;;;;;;;-150.27;100.00;61272.81;5207357;28;20136;-75
2022/04/25 03:12:55;;;;;;;11.30;8.37;;;;;;;-150.27;100.00;61272.81;5208500;28;20113;-75
2022/04/25 03:15:26;;;;;;;11.23;8.23;;;;;;;-150.27;100.00;61272.81;5209011;28;20085;-75
2022/04/25 03:17:58;;;;;;;14.30;9.03;;;;;;;-150.27;100.00;61272.81;5206072;28;20049;-76
2022/04/25 03:20:31;;;;;;;16.07;8.53;;;;;;;-150.27;100.00;61272.81;5207419;28;20365;-76
2022/04/25 03:23:05;;;;;;;15.63;9.43;;;;;;;-150.27;100.00;61272.81;5207978;28;20089;-75
2022/04/25 03:25:37;;;;;;;12.57;10.00;;;;;;;-150.27;100.00;61272.81;5223418;28;20076;-75
2022/04/25 03:28:09;;;;;;;12.87;8.73;;;;;;;-150.27;100.00;61272.81;5208685;28;20022;-75
2022/04/25 03:30:41;;;;;;;11.53;8.57;;;;;;;-150.27;100.00;61272.81;5208633;28;20036;-75
2022/04/25 03:33:13;;;;;;;18.03;9.90;;;;;;;-150.27;100.00;61272.81;5205303;28;20026;-76
2022/04/25 03:35:46;;;;;;;12.30;9.00;;;;;;;-150.27;100.00;61272.81;5206671;28;20025;-75
2022/04/25 03:38:18;;;;;;;14.73;9.60;;;;;;;-150.27;100.00;61272.81;5207691;28;20451;-76
2022/04/25 03:40:49;;;;;;;16.20;10.47;;;;;;;-150.27;100.00;61272.81;5208883;28;20038;-75
2022/04/25 03:43:23;;;;;;;12.67;8.77;;;;;;;-150.27;100.00;61272.81;5208088;28;20052;-76
2022/04/25 03:45:55;;;;;;;13.53;9.40;;;;;;;-150.27;100.00;61272.81;5208151;28;20029;-76
2022/04/25 03:48:26;;;;;;;17.00;9.50;;;;;;;-150.27;100.00;61272.81;5207998;28;20281;-75
2022/04/25 03:50:57;;;;;;;13.40;9.40;;;;;;;-150.27;100.00;61272.81;5207920;28;20026;-75
2022/04/25 03:53:28;;;;;;;13.03;9.47;;;;;;;-150.27;100.00;61272.81;5207257;28;20029;-75
2022/04/25 03:58:50;;;;;;;17.40;9.40;;;;;;;-150.27;100.00;61272.81;5207661;28;20038;-75
2022/04/25 04:01:21;;;;;;;13.50;9.60;;;;;;;-150.27;100.00;61272.81;5208378;28;20029;-75
2022/04/25 04:03:53;;;;;;;15.07;9.93;;;;;;;-150.27;100.00;61272.81;5210738;28;20057;-75
2022/04/25 04:06:25;;;;;;;15.77;11.73;;;;;;;-150.27;100.00;61272.81;5208939;28;20049;-75
2022/04/25 04:08:56;;;;;;;13.07;9.50;;;;;;;-150.27;100.00;61272.81;5205412;28;20073;-76
2022/04/25 04:11:46;;;;;;;12.47;9.60;;;;;;;-150.27;100.00;61272.81;5206316;28;20038;-76
2022/04/25 04:14:17;;;;;;;13.83;10.37;;;;;;;-150.27;100.00;61272.81;5206025;28;20033;-75
2022/04/25 04:16:48;;;;;;;14.03;10.00;;;;;;;-150.27;100.00;61272.81;5206428;28;20543;-75
2022/04/25 04:19:20;;;;;;;15.40;10.63;;;;;;;-150.27;100.00;61272.81;5207693;28;20034;-76
2022/04/25 04:21:52;;;;;;;13.23;9.30;;;;;;;-150.27;100.00;61272.81;5206114;28;20026;-75
2022/04/25 04:24:23;;;;;;;15.00;10.33;;;;;;;-150.27;100.00;61272.81;5207967;28;20028;-75
2022/04/25 04:26:56;;;;;;;18.37;11.10;;;;;;;-150.27;100.00;61272.81;5207002;28;20089;-75
2022/04/25 04:29:29;;;;;;;18.60;10.70;;;;;;;-150.27;100.00;61272.81;5205893;28;20041;-75
2022/04/25 04:32:05;;;;;;;15.17;10.90;;;;;;;-150.27;100.00;61272.81;5206758;28;20117;-76
2022/04/25 04:34:37;;;;;;;17.53;11.87;;;;;;;-150.27;100.00;61272.81;5207519;28;20114;-75
2022/04/25 04:37:08;;;;;;;14.07;10.70;;;;;;;-150.27;100.00;61272.81;5205750;28;20026;-75
2022/04/25 04:39:39;;;;;;;15.27;11.30;;;;;;;-150.27;100.00;61272.81;5207984;28;20036;-76
2022/04/25 04:42:10;;;;;;;19.77;12.07;;;;;;;-150.27;100.00;61272.81;5205583;28;20038;-75
2022/04/25 04:44:43;;;;;;;20.20;11.50;;;;;;;-150.27;100.00;61272.81;5207049;28;20057;-75
2022/04/25 04:47:15;;;;;;;13.80;11.97;;;;;;;-150.27;100.00;61272.81;5207018;28;20056;-75
2022/04/25 04:49:46;;;;;;;15.33;11.13;;;;;;;-150.27;100.00;61272.81;5206725;28;20018;-75
2022/04/25 04:52:17;;;;;;;22.63;10.70;;;;;;;-150.27;100.00;61272.81;5204924;28;20664;-75
2022/04/25 04:54:49;;;;;;;17.43;12.03;;;;;;;-150.27;100.00;61272.81;5206801;28;20022;-76
2022/04/25 04:57:20;;;;;;;19.77;11.83;;;;;;;-150.27;100.00;61272.81;5207457;28;20034;-76
2022/04/25 04:59:51;;;;;;;16.90;11.43;;;;;;;-150.27;100.00;61272.81;5205326;28;20026;-76
2022/04/25 05:02:22;;;;;;;16.90;12.00;;;;;;;-150.27;100.00;61272.81;5205491;28;20059;-76
2022/04/25 05:04:54;;;;;;;19.43;12.50;;;;;;;-150.27;100.00;61272.81;5206296;28;20022;-76
2022/04/25 05:07:25;;;;;;;16.67;12.17;;;;;;;-150.27;100.00;61272.81;5205741;28;20049;-76
2022/04/25 05:09:57;;;;;;;14.10;11.30;;;;;;;-150.27;100.00;61272.81;5219518;28;20055;-75
2022/04/25 05:12:28;;;;;;;17.70;11.30;;;;;;;-150.27;100.00;61272.81;5227065;28;20073;-75
2022/04/25 05:15:03;;;;;;;19.47;12.13;;;;;;;-150.27;100.00;61272.81;5227258;28;20036;-76
2022/04/25 05:17:34;;;;;;;15.20;11.53;;;;;;;-150.27;100.00;61272.81;5209035;28;20041;-75
2022/04/25 05:20:06;;;;;;;15.20;11.17;;;;;;;-150.27;100.00;61272.81;5209238;28;20392;-75
2022/04/25 05:22:40;;;;;;;18.27;12.80;;;;;;;-150.27;100.00;61272.81;5226398;28;20515;-75
2022/04/25 05:25:14;;;;;;;17.87;10.77;;;;;;;-150.27;100.00;61272.81;5226641;28;20112;-75
2022/04/25 05:27:47;;;;;;;14.82;12.52;;;;;;;-150.27;100.00;61272.81;5226674;28;20021;-69
2022/04/25 05:30:20;;;;;;;17.30;12.10;;;;;;;-150.27;100.00;61272.81;5227031;28;20060;-76
2022/04/25 05:32:54;;;;;;;17.40;11.77;;;;;;;-150.27;100.00;61272.81;5226250;28;20099;-76
2022/04/25 05:35:27;;;;;;;20.10;12.05;;;;;;;-150.27;100.00;61272.81;5226768;28;20553;-75
2022/04/25 05:38:00;;;;;;;22.30;13.13;;;;;;;-150.27;100.00;61272.81;5226098;28;20060;-76
2022/04/25 05:40:32;;;;;;;16.83;11.50;;;;;;;-150.27;100.00;61272.81;5226003;28;20280;-76
2022/04/25 05:43:05;;;;;;;17.97;12.03;;;;;;;-150.27;100.00;61272.81;5226680;28;20052;-76
2022/04/25 05:45:37;;;;;;;20.30;12.67;;;;;;;-150.27;100.00;61272.81;5226519;28;20037;-76
2022/04/25 05:53:48;;;;;;;16.73;12.53;;;;;;;-150.27;100.00;61272.81;5226460;28;20065;-76
2022/04/25 05:56:20;;;;;;;16.70;11.60;;;;;;;-150.27;100.00;61272.81;5208463;28;20445;-76
2022/04/25 05:58:51;;;;;;;16.37;12.00;;;;;;;-150.27;100.00;61272.81;5227005;28;20125;-76
2022/04/25 06:01:22;;;;;;;15.40;12.83;;;;;;;-150.27;100.00;61272.81;5225945;28;20022;-76
2022/04/25 06:03:53;;;;;;;18.03;12.23;;;;;;;-150.27;100.00;61272.81;5226298;28;20029;-76
2022/04/25 06:06:26;;;;;;;17.93;12.53;;;;;;;-150.27;100.00;61272.81;5225524;28;20530;-76
2022/04/25 06:08:57;;;;;;;20.80;13.07;;;;;;;-150.27;100.00;61272.81;5226575;28;20081;-76
2022/04/25 06:11:29;;;;;;;16.77;12.13;;;;;;;-150.27;100.00;61272.81;5226837;28;20462;-75
2022/04/25 06:14:02;;;;;;;14.30;12.10;;;;;;;-150.27;100.00;61272.81;5225986;28;20112;-76
2022/04/25 06:16:33;;;;;;;16.67;13.50;;;;;;;-150.27;100.00;61272.81;5209073;28;20046;-76
2022/04/25 06:19:04;;;;;;;18.77;13.80;;;;;;;-150.27;100.00;61272.81;5225826;28;20044;-75
2022/04/25 06:21:36;;;;;;;18.50;14.43;;;;;;;-150.27;100.00;61272.81;5225905;28;20037;-76
2022/04/25 06:24:07;;;;;;;19.60;13.90;;;;;;;-150.27;100.00;61272.81;5208044;28;20122;-76
2022/04/25 06:26:38;;;;;;;20.20;14.87;;;;;;;-150.27;100.00;61272.81;5208689;28;20111;-75
2022/04/25 06:29:10;;;;;;;16.27;13.33;;;;;;;-150.27;100.00;61272.81;5226971;28;20079;-75
2022/04/25 06:31:42;;;;;;;17.80;13.77;;;;;;;-150.27;100.00;61272.81;5208131;28;20319;-76
2022/04/25 06:34:13;;;;;;;22.47;14.60;;;;;;;-150.27;100.00;61272.81;5226310;28;20036;-76
2022/04/25 06:36:44;;;;;;;20.87;14.17;;;;;;;-150.27;100.00;61272.81;5190809;28;20029;-75
2022/04/25 06:39:18;;;;;;;19.47;14.43;;;;;;;-150.27;100.00;61272.81;5226332;28;20499;-76
2022/04/25 06:41:50;;;;;;;18.40;13.95;;;;;;;-150.27;100.00;61272.81;5225590;28;20033;-76
2022/04/25 06:44:21;;;;;;;18.57;15.53;;;;;;;-150.27;100.00;61272.81;5226327;28;20022;-76
2022/04/25 06:46:53;;;;;;;18.20;15.37;;;;;;;-150.27;100.00;61272.81;5226564;28;20033;-75
2022/04/25 06:49:24;;;;;;;22.37;14.87;;;;;;;-150.27;100.00;61272.81;5207670;28;20022;-76
2022/04/25 06:51:59;;;;;;;18.83;15.90;;;;;;;-150.27;100.00;61272.81;5227282;28;20882;-75
2022/04/25 06:54:31;;;;;;;17.30;14.50;;;;;;;-150.27;100.00;61272.81;5211707;28;20034;-75
2022/04/25 06:57:02;;;;;;;17.00;13.67;;;;;;;-150.27;100.00;61272.81;5230170;28;20052;-75
2022/04/25 06:59:33;;;;;;;17.17;14.20;;;;;;;-150.27;100.00;61272.81;5208743;28;20040;-75
2022/04/25 07:02:05;;;;;;;22.57;15.40;;;;;;;-150.27;100.00;61272.81;5229911;28;20041;-75
2022/04/25 07:04:37;;;;;;;19.57;14.27;;;;;;;-150.27;100.00;61272.81;5211570;28;20030;-76
2022/04/25 07:07:08;;;;;;;19.30;15.20;;;;;;;-150.27;100.00;61272.81;5228719;28;20037;-75
2022/04/25 07:09:40;;;;;;;21.17;15.30;;;;;;;-150.27;100.00;61272.81;5212029;28;20049;-73
2022/04/25 07:12:11;;;;;;;22.47;15.13;;;;;;;-150.27;100.00;61272.81;5228981;28;20714;-75
2022/04/25 07:14:43;;;;;;;19.33;15.83;;;;;;;-150.27;100.00;61272.81;5212121;28;20745;-75
2022/04/25 07:17:14;;;;;;;20.50;14.83;;;;;;;-150.27;100.00;61272.81;5229022;28;20059;-75
2022/04/25 07:19:45;;;;;;;22.10;16.53;;;;;;;-150.27;100.00;61272.81;5229463;28;20029;-71
2022/04/25 07:30:46;;;;;;;18.63;15.77;;;;;;;-150.27;100.00;61272.81;5228861;28;20547;-76
2022/04/25 07:33:18;;;;;;;23.40;15.63;;;;;;;-150.27;100.00;61272.81;5229484;28;20060;-75
2022/04/25 07:35:49;;;;;;;24.23;16.27;;;;;;;-150.27;100.00;61272.81;5210377;28;20107;-76
2022/04/25 07:38:20;;;;;;;19.17;16.43;;;;;;;-150.27;100.00;61272.81;5228266;28;20052;-75
2022/04/25 07:40:52;;;;;;;22.57;16.70;;;;;;;-150.27;100.00;61272.81;5228896;28;20048;-75
2022/04/25 07:43:23;;;;;;;19.23;16.60;;;;;;;-150.27;100.00;61272.81;5228948;28;20408;-71
2022/04/25 07:45:55;;;;;;;20.67;17.77;;;;;;;-150.27;100.00;61272.81;5228903;28;20025;-75
2022/04/25 07:48:27;;;;;;;22.60;17.60;;;;;;;-150.27;100.00;61272.81;5228686;28;20051;-76
2022/04/25 07:50:58;;;;;;;22.10;16.50;;;;;;;-150.27;100.00;61272.81;5227785;28;20083;-76
2022/04/25 07:53:30;;;;;;;19.77;16.57;;;;;;;-150.27;100.00;61272.81;5228654;28;20072;-75
2022/04/25 07:56:02;;;;;;;22.77;17.23;;;;;;;-150.27;100.00;61272.81;5228625;28;20414;-76
2022/04/25 07:58:34;;;;;;;24.13;17.23;;;;;;;-150.27;100.00;61272.81;5228919;28;20030;-75
2022/04/25 08:01:06;;;;;;;20.83;17.77;;;;;;;-150.27;100.00;61272.81;5228509;28;20061;-76
2022/04/25 08:03:37;;;;;;;18.97;17.03;;;;;;;-150.27;100.00;61272.81;5194381;28;20441;-72
2022/04/25 08:06:11;;;;;;;20.30;18.20;;;;;;;-150.27;100.00;61272.81;5226892;28;20021;-75
2022/04/25 08:08:42;;;;;;;24.50;18.50;;;;;;;-150.27;100.00;61272.81;5228825;28;20025;-75
2022/04/25 08:11:14;;;;;;;20.73;16.47;;;;;;;-150.27;100.00;61272.81;5227524;28;20028;-76
2022/04/25 08:19:26;;;;;;;21.30;18.63;;;;;;;-150.27;100.00;61272.81;5227781;28;20128;-75
2022/04/25 08:22:00;;;;;;;24.23;20.60;;;;;;;-150.27;100.00;61272.81;5227342;28;20120;-75
2022/04/25 08:24:31;;;;;;;26.57;19.50;;;;;;;-150.27;100.00;61272.81;5228247;28;20029;-76
2022/04/25 08:27:06;;;;;;;23.80;20.13;;;;;;;-150.27;100.00;61272.81;5228363;28;20025;-75
2022/04/25 08:29:37;;;;;;;25.97;22.03;;;;;;;-150.27;100.00;61272.81;5228014;28;20017;-75
2022/04/25 08:32:08;;;;;;;27.30;21.67;;;;;;;-150.27;100.00;61272.81;5228060;28;20028;-75
2022/04/25 08:34:40;;;;;;;24.67;22.00;;;;;;;-150.27;100.00;61272.81;5227714;28;20037;-76
2022/04/25 08:37:11;;;;;;;27.77;22.57;;;;;;;-150.27;100.00;61272.81;5226685;28;20031;-75
2022/04/25 08:39:42;;;;;;;26.63;21.60;;;;;;;-150.27;100.00;61272.81;5210125;28;20438;-75
2022/04/25 08:42:13;;;;;;;23.73;20.93;;;;;;;-150.27;100.00;61272.81;5227058;28;20029;-75
2022/04/25 08:44:49;;;;;;;23.07;20.63;;;;;;;-150.27;100.00;61272.81;5229533;28;20029;-75
2022/04/25 08:47:26;;;;;;;24.03;21.43;;;;;;;-150.27;100.00;61272.81;5214181;28;20029;-75
2022/04/25 08:49:58;;;;;;;27.03;22.03;;;;;;;-150.27;100.00;61272.81;5189221;28;20099;-75
2022/04/25 08:52:29;;;;;;;27.23;22.90;;;;;;;-150.27;100.00;61272.81;5206957;28;20884;-74
2022/04/25 08:55:02;;;;;;;26.33;23.43;;;;;;;-150.27;100.00;61272.81;5227827;28;20036;-74
2022/04/25 08:57:35;;;;;;;25.40;21.57;;;;;;;-150.27;100.00;61272.81;5228004;28;20060;-74
2022/04/25 09:00:07;;;;;;;24.73;22.00;;;;;;;-150.27;100.00;61272.81;5227415;28;20120;-75
2022/04/25 09:02:39;;;;;;;29.00;22.10;;;;;;;-150.27;100.00;61272.81;5227423;28;20581;-75
2022/04/25 09:05:12;;;;;;;24.87;21.97;;;;;;;-150.27;100.00;61272.81;5227306;28;20041;-74
2022/04/25 09:07:44;;;;;;;25.93;21.63;;;;;;;-150.27;100.00;61272.81;5226358;28;20042;-74
2022/04/25 09:10:18;;;;;;;26.60;23.13;;;;;;;-150.27;100.00;61272.81;5226734;28;20054;-75
2022/04/25 09:12:49;;;;;;;25.02;22.30;;;;;;;-150.27;100.00;61272.81;5209337;28;20025;-74
2022/04/25 09:15:22;;;;;;;25.93;23.30;;;;;;;-150.27;100.00;61272.81;5227877;28;20048;-74
2022/04/25 09:17:55;;;;;;;26.53;23.47;;;;;;;-150.27;100.00;61272.81;5225627;28;20042;-75
2022/04/25 09:20:27;;;;;;;25.77;22.97;;;;;;;-150.27;100.00;61272.81;5227640;28;20030;-74
2022/04/25 09:22:58;;;;;;;27.57;24.37;;;;;;;-150.27;100.00;61272.81;5206415;28;20032;-75
2022/04/25 09:25:29;;;;;;;28.17;24.30;;;;;;;-150.27;100.00;61272.81;5207355;28;20026;-75
2022/04/25 09:28:13;;;;;;;27.00;21.90;;;;;;;-150.27;100.00;61272.81;5226198;28;20056;-74
2022/04/25 09:31:00;;;;;;;28.60;25.50;;;;;;;-150.27;100.00;61272.81;5228813;28;20017;-74
2022/04/25 09:33:31;;;;;;;28.03;25.07;;;;;;;-150.27;100.00;61272.81;5228515;28;20087;-75
2022/04/25 09:36:04;;;;;;;29.97;25.53;;;;;;;-150.27;100.00;61272.81;5226404;28;20487;-76
2022/04/25 09:38:38;;;;;;;27.50;23.47;;;;;;;-150.27;100.00;61272.81;5226262;28;20443;-74
2022/04/25 09:41:11;;;;;;;27.60;23.95;;;;;;;-150.27;100.00;61272.81;5227133;28;20385;-74
2022/04/25 09:43:44;;;;;;;30.77;24.13;;;;;;;-150.27;100.00;61272.81;5226358;28;20472;-74
2022/04/25 09:46:17;;;;;;;27.13;23.93;;;;;;;-150.27;100.00;61272.81;5228089;28;20801;-74
2022/04/25 09:49:03;;;;;;;27.13;24.33;;;;;;;-150.27;100.00;61272.81;5191622;28;20495;-74
2022/04/25 09:51:34;;;;;;;27.77;24.70;;;;;;;-150.27;100.00;61272.81;5226239;28;20084;-74
2022/04/25 09:54:07;;;;;;;29.10;25.27;;;;;;;-150.27;100.00;61272.81;5226301;28;20037;-73
2022/04/25 09:56:40;;;;;;;31.20;26.77;;;;;;;-150.27;100.00;61272.81;5227069;28;20021;-74
2022/04/25 09:59:11;;;;;;;29.83;25.27;;;;;;;-150.27;100.00;61272.81;5225947;28;20128;-74
2022/04/25 10:01:44;;;;;;;28.80;25.60;;;;;;;-150.27;100.00;61272.81;5226557;28;20120;-74
2022/04/25 10:04:32;;;;;;;27.00;23.93;;;;;;;-150.27;100.00;61272.81;5226333;28;20080;-74
2022/04/25 10:07:06;;;;;;;28.47;24.57;;;;;;;-150.27;100.00;61272.81;5208665;28;20037;-74
2022/04/25 10:09:37;;;;;;;29.20;23.55;;;;;;;-150.27;100.00;61272.81;5211975;28;20125;-73
2022/04/25 10:12:09;;;;;;;24.50;22.20;;;;;;;-150.27;100.00;61272.81;5208524;28;20444;-74
2022/04/25 10:14:41;;;;;;;26.47;23.70;;;;;;;-150.27;100.00;61272.81;5191996;28;20499;-74
2022/04/25 10:17:14;;;;;;;26.97;23.77;;;;;;;-150.27;100.00;61272.81;5208867;28;20527;-74
2022/04/25 10:19:45;;;;;;;25.73;23.17;;;;;;;-150.27;100.00;61272.81;5226606;28;20468;-71
2022/04/25 10:22:18;;;;;;;25.67;22.90;;;;;;;-150.27;100.00;61272.81;5207564;28;20041;-74
2022/04/25 10:24:49;;;;;;;29.87;24.03;;;;;;;-150.27;100.00;61272.81;5226274;28;20490;-73
2022/04/25 10:27:27;;;;;;;25.40;22.83;;;;;;;-150.27;100.00;61272.81;5211477;28;20037;-74
2022/04/25 10:30:07;;;;;;;23.00;20.73;;;;;;;-150.27;100.00;61272.81;5212377;28;20026;-74
2022/04/25 10:32:38;;;;;;;23.50;21.10;;;;;;;-150.27;100.00;61272.81;5216811;28;20059;-73
2022/04/25 10:35:15;;;;;;;22.43;20.13;;;;;;;-150.27;100.00;61272.81;5230152;28;20041;-74
2022/04/25 10:37:48;;;;;;;22.80;20.37;;;;;;;-150.27;100.00;61272.81;5228729;28;20029;-73
2022/04/25 10:44:10;;;;;;;23.87;21.37;;;;;;;-150.27;100.00;61272.81;5230588;28;20029;-74
2022/04/25 10:46:03;;;;;;;22.23;20.07;;;;;;;-150.27;100.00;61272.81;5229193;28;20038;-73
2022/04/25 10:49:05;;;;;;;22.30;20.10;;;;;;;-150.27;100.00;61272.81;5230368;28;20030;-74
2022/04/25 10:51:38;;;;;;;22.77;20.43;;;;;;;-150.27;100.00;61272.81;5196595;28;20554;-73
2022/04/25 10:54:12;;;;;;;22.73;20.43;;;;;;;-150.27;100.00;61272.81;5225397;28;20037;-74
2022/04/25 10:57:05;;;;;;;23.70;21.30;;;;;;;-150.27;100.00;61272.81;5230462;28;20511;-73
2022/04/25 10:59:37;;;;;;;23.87;21.33;;;;;;;-150.27;100.00;61272.81;5232198;28;20353;-74
2022/04/25 11:02:22;;;;;;;24.90;22.50;;;;;;;-150.27;100.00;61272.81;5230010;28;20109;-74
2022/04/25 11:05:12;;;;;;;24.88;22.27;;;;;;;-150.27;100.00;61272.81;5214186;28;20117;-74
2022/04/25 11:07:44;;;;;;;24.90;22.47;;;;;;;-150.27;100.00;61272.81;5210482;28;20462;-74
2022/04/25 11:10:41;;;;;;;25.17;22.67;;;;;;;-150.27;100.00;61272.81;5211705;28;20053;-74
2022/04/25 11:13:14;;;;;;;23.50;21.00;;;;;;;-150.27;100.00;61272.81;5229098;28;20488;-74
2022/04/25 11:15:50;;;;;;;24.73;22.23;;;;;;;-150.27;100.00;61272.81;5211597;28;20033;-70
2022/04/25 11:18:38;;;;;;;21.03;18.87;;;;;;;-150.27;100.00;61272.81;5211301;28;20495;-74
2022/04/25 11:21:12;;;;;;;22.87;20.27;;;;;;;-150.27;100.00;61272.81;5227875;28;20098;-74
2022/04/25 11:23:44;;;;;;;22.92;20.50;;;;;;;-150.27;100.00;61272.81;5211668;28;20021;-74
2022/04/25 11:26:21;;;;;;;23.37;20.87;;;;;;;-150.27;100.00;61272.81;5229246;28;20455;-74
2022/04/25 11:28:55;;;;;;;22.40;19.90;;;;;;;-150.27;100.00;61272.81;5229151;28;20423;-73
2022/04/25 11:31:30;;;;;;;20.73;18.15;;;;;;;-150.27;100.00;61272.81;5229323;28;20292;-73
2022/04/25 11:34:04;;;;;;;20.80;18.70;;;;;;;-150.27;100.00;61272.81;5228594;28;20040;-74
2022/04/25 11:36:39;;;;;;;22.53;20.17;;;;;;;-150.27;100.00;61272.81;5210507;28;20030;-74
2022/04/25 11:42:09;;;;;;;22.38;18.70;;;;;;;-150.27;100.00;61272.81;5228667;28;20488;-73
2022/04/25 11:44:41;;;;;;;20.37;18.33;;;;;;;-150.27;100.00;61272.81;5229279;28;20095;-73
2022/04/25 11:47:12;;;;;;;20.67;18.43;;;;;;;-150.27;100.00;61272.81;5228620;28;20375;-73
2022/04/25 11:49:44;;;;;;;19.77;17.50;;;;;;;-150.27;100.00;61272.81;5210943;28;20040;-73
2022/04/25 11:52:15;;;;;;;21.60;19.33;;;;;;;-150.27;100.00;61272.81;5210225;28;20021;-74
2022/04/25 11:54:47;;;;;;;21.47;19.17;;;;;;;-150.27;100.00;61272.81;5228103;28;20545;-74